Time;durP1;ratioP1;P1;durP2;ratioP2;P2;SDS_P1;SDS_P2;PMS_P1;PMS_P2;Temp;Humidity;BMP_temperature;BMP_pressure;BME280_temperature;BME280_humidity;BME280_pressure;Samples;Min_cycle;Max_cycle;Signal;HPM_P1;HPM_P2
2021/03/09 00:00:37;;;;;;;27.40;4.43;;;29.20;18.90;;;;;;5036744;28;20554;-64
2021/03/09 00:03:04;;;;;;;22.90;4.13;;;29.10;18.40;;;;;;5039256;28;20086;-64
2021/03/09 00:05:31;;;;;;;16.73;3.60;;;29.00;18.20;;;;;;5031805;28;20427;-64
2021/03/09 00:07:57;;;;;;;24.77;4.22;;;29.00;17.80;;;;;;5052569;28;20093;-64
2021/03/09 00:10:24;;;;;;;23.08;5.00;;;28.90;18.40;;;;;;5035328;28;20094;-64
2021/03/09 00:12:50;;;;;;;22.00;2.80;;;28.90;19.20;;;;;;5039030;28;20161;-64
2021/03/09 00:15:17;;;;;;;18.08;2.50;;;28.80;19.10;;;;;;5036480;28;20116;-64
2021/03/09 00:17:44;;;;;;;16.75;3.00;;;28.70;19.00;;;;;;5031612;28;20073;-64
2021/03/09 00:20:11;;;;;;;19.27;2.70;;;28.50;19.10;;;;;;5015976;28;20075;-65
2021/03/09 00:22:38;;;;;;;17.42;2.67;;;28.20;19.50;;;;;;5036116;28;20527;-64
2021/03/09 00:25:05;;;;;;;20.58;3.00;;;28.00;20.00;;;;;;5033127;28;20089;-65
2021/03/09 00:27:32;;;;;;;17.60;2.50;;;27.80;20.50;;;;;;5034720;28;20089;-65
2021/03/09 00:29:59;;;;;;;14.05;2.22;;;27.60;20.60;;;;;;5032792;28;20101;-67
2021/03/09 00:32:25;;;;;;;21.70;2.97;;;27.50;20.70;;;;;;5035963;28;20556;-62
2021/03/09 00:34:52;;;;;;;18.58;2.67;;;27.40;21.00;;;;;;5035653;28;20078;-60
2021/03/09 00:37:22;;;;;;;11.15;2.22;;;27.40;21.20;;;;;;5043384;28;20078;-65
2021/03/09 00:39:48;;;;;;;23.25;2.58;;;27.20;21.60;;;;;;5045747;28;20070;-63
2021/03/09 00:42:15;;;;;;;15.95;2.70;;;26.90;22.40;;;;;;5046964;28;20077;-64
2021/03/09 00:44:42;;;;;;;11.38;2.83;;;26.90;23.30;;;;;;5034414;28;20073;-62
2021/03/09 00:47:08;;;;;;;12.25;2.63;;;26.70;23.70;;;;;;5035719;28;20225;-64
2021/03/09 00:49:35;;;;;;;15.25;2.33;;;26.40;24.00;;;;;;5039275;28;20094;-63
2021/03/09 00:52:02;;;;;;;18.33;2.65;;;26.40;24.20;;;;;;5038182;28;20112;-64
2021/03/09 00:54:28;;;;;;;18.88;2.88;;;26.30;24.30;;;;;;5041142;28;20160;-63
2021/03/09 00:56:55;;;;;;;19.77;2.72;;;26.10;24.90;;;;;;5043428;28;20070;-65
2021/03/09 00:59:21;;;;;;;15.45;2.55;;;25.80;24.90;;;;;;5038694;28;20078;-63
2021/03/09 01:01:48;;;;;;;14.57;2.55;;;25.70;25.10;;;;;;5037775;28;20403;-62
2021/03/09 01:04:14;;;;;;;21.23;2.85;;;25.60;25.10;;;;;;5042397;28;20074;-62
2021/03/09 01:06:41;;;;;;;17.98;3.10;;;25.50;25.30;;;;;;5042837;28;20074;-64
2021/03/09 01:09:07;;;;;;;14.95;2.70;;;25.40;25.50;;;;;;5038907;28;20109;-63
2021/03/09 01:11:34;;;;;;;19.05;2.45;;;25.20;25.70;;;;;;5041312;28;20074;-64
2021/03/09 01:14:00;;;;;;;15.80;2.90;;;25.20;25.80;;;;;;5046271;28;20079;-62
2021/03/09 01:16:27;;;;;;;14.75;3.15;;;25.10;25.90;;;;;;5038793;28;20426;-64
2021/03/09 01:18:53;;;;;;;21.45;3.00;;;25.10;26.20;;;;;;5036644;28;20092;-61
2021/03/09 01:21:20;;;;;;;17.98;3.15;;;25.00;26.30;;;;;;5042281;28;20074;-61
2021/03/09 01:23:46;;;;;;;22.02;3.30;;;24.80;26.30;;;;;;5042483;28;20081;-61
2021/03/09 01:26:13;;;;;;;19.45;2.97;;;24.80;26.70;;;;;;5040186;28;20104;-63
2021/03/09 01:28:39;;;;;;;12.75;2.92;;;24.70;26.70;;;;;;5038836;28;20097;-62
2021/03/09 01:31:06;;;;;;;24.95;3.33;;;24.60;27.00;;;;;;5037243;28;20546;-62
2021/03/09 01:33:33;;;;;;;15.55;3.00;;;24.50;27.20;;;;;;5059854;28;20085;-60
2021/03/09 01:35:59;;;;;;;13.63;2.70;;;24.40;27.50;;;;;;5043854;28;20160;-60
2021/03/09 01:38:26;;;;;;;18.85;3.67;;;24.40;27.70;;;;;;5039648;28;20105;-61
2021/03/09 01:40:52;;;;;;;18.52;2.90;;;24.30;28.10;;;;;;5044593;28;20070;-62
2021/03/09 01:43:19;;;;;;;19.73;3.58;;;24.20;28.30;;;;;;5036759;28;20077;-63
2021/03/09 01:45:45;;;;;;;19.98;3.70;;;24.10;28.50;;;;;;5041798;28;20074;-62
2021/03/09 01:48:14;;;;;;;19.48;3.63;;;24.10;28.60;;;;;;5038423;28;20074;-62
2021/03/09 01:50:43;;;;;;;17.85;3.05;;;24.00;28.90;;;;;;5043179;28;20098;-63
2021/03/09 01:53:09;;;;;;;18.58;3.20;;;23.90;29.10;;;;;;5044619;28;20114;-63
2021/03/09 01:55:36;;;;;;;15.55;3.22;;;23.90;29.30;;;;;;5038252;28;20074;-62
2021/03/09 01:58:10;;;;;;;14.93;2.85;;;23.90;29.50;;;;;;5039729;28;20086;-63
2021/03/09 02:00:41;;;;;;;15.23;4.40;;;23.80;29.60;;;;;;5043145;28;20078;-62
2021/03/09 02:03:08;;;;;;;13.63;3.58;;;23.70;29.80;;;;;;5039788;28;20518;-62
2021/03/09 02:05:35;;;;;;;13.45;3.22;;;23.60;29.90;;;;;;5039368;28;20105;-61
2021/03/09 02:08:02;;;;;;;12.13;2.97;;;23.50;30.10;;;;;;5039692;28;20077;-62
2021/03/09 02:10:29;;;;;;;10.70;3.08;;;23.40;30.40;;;;;;5044291;28;20179;-62
2021/03/09 02:13:14;;;;;;;20.33;3.30;;;23.30;30.80;;;;;;5041341;28;20078;-62
2021/03/09 02:15:49;;;;;;;20.27;3.22;;;23.30;31.10;;;;;;5046462;28;20453;-60
2021/03/09 02:18:30;;;;;;;13.25;3.60;;;23.30;31.40;;;;;;5042161;28;20549;-60
2021/03/09 02:21:21;;;;;;;22.02;3.70;;;23.20;31.30;;;;;;5040348;28;20108;-60
2021/03/09 02:24:09;;;;;;;14.80;3.05;;;23.10;31.70;;;;;;5041053;28;20463;-61
2021/03/09 02:26:59;;;;;;;14.25;3.40;;;23.00;31.90;;;;;;5035797;28;20078;-62
2021/03/09 02:29:26;;;;;;;15.65;3.53;;;22.90;32.10;;;;;;5038759;28;20600;-60
2021/03/09 02:31:55;;;;;;;14.75;3.38;;;22.80;32.50;;;;;;5037305;28;20165;-61
2021/03/09 02:34:32;;;;;;;20.48;4.00;;;22.80;32.00;;;;;;5041048;28;20426;-62
2021/03/09 02:37:01;;;;;;;;;;;22.70;32.20;;;;;;5043989;28;20095;-62
2021/03/09 02:39:28;;;;;;;24.38;3.70;;;22.70;32.30;;;;;;5041577;28;19961;-63
2021/03/09 02:42:00;;;;;;;26.85;5.40;;;22.60;32.60;;;;;;5039061;28;20082;-62
2021/03/09 02:44:28;;;;;;;19.70;4.03;;;22.50;32.90;;;;;;5040924;28;20530;-63
2021/03/09 02:46:56;;;;;;;16.50;3.58;;;22.50;32.70;;;;;;5041984;28;20150;-63
2021/03/09 02:49:26;;;;;;;18.75;3.10;;;22.40;32.90;;;;;;5037905;28;20125;-63
2021/03/09 02:51:54;;;;;;;18.73;3.47;;;22.30;32.90;;;;;;5037499;28;20070;-63
2021/03/09 02:54:22;;;;;;;35.05;3.88;;;22.20;33.00;;;;;;5040504;28;20545;-64
2021/03/09 02:56:51;;;;;;;17.23;3.45;;;22.10;33.10;;;;;;5040278;28;20079;-63
2021/03/09 02:59:19;;;;;;;21.23;3.20;;;22.00;33.20;;;;;;5039407;28;20084;-67
2021/03/09 03:01:48;;;;;;;17.38;2.83;;;21.80;33.60;;;;;;5039177;28;20066;-62
2021/03/09 03:04:17;;;;;;;19.02;5.20;;;21.70;34.10;;;;;;5037459;28;20070;-63
2021/03/09 03:06:48;;;;;;;16.55;2.78;;;21.70;34.60;;;;;;5039196;28;20089;-64
2021/03/09 03:09:20;;;;;;;24.60;3.28;;;21.50;34.70;;;;;;5039306;28;20605;-62
2021/03/09 03:11:49;;;;;;;17.70;2.70;;;21.30;35.00;;;;;;5038008;28;20126;-63
2021/03/09 03:14:17;;;;;;;18.67;2.83;;;21.20;35.30;;;;;;5034147;28;20088;-63
2021/03/09 03:16:45;;;;;;;13.73;2.25;;;21.10;35.00;;;;;;5038209;28;20077;-64
2021/03/09 03:19:14;;;;;;;17.33;3.25;;;21.10;35.10;;;;;;5038614;28;20469;-63
2021/03/09 03:21:43;;;;;;;19.50;3.05;;;20.90;35.50;;;;;;5035377;28;20078;-61
2021/03/09 03:24:14;;;;;;;17.38;2.78;;;20.70;36.00;;;;;;5034836;28;20090;-61
2021/03/09 03:26:45;;;;;;;18.17;3.20;;;20.60;36.50;;;;;;5038953;28;20160;-62
2021/03/09 03:29:13;;;;;;;26.35;3.10;;;20.70;36.70;;;;;;5037818;28;20125;-62
2021/03/09 03:31:41;;;;;;;15.77;3.45;;;20.60;36.90;;;;;;5037578;28;20523;-62
2021/03/09 03:34:07;;;;;;;16.17;3.22;;;20.50;37.20;;;;;;5042505;28;20577;-62
2021/03/09 03:36:37;;;;;;;17.95;2.67;;;20.40;37.30;;;;;;5035496;28;20534;-61
2021/03/09 03:39:06;;;;;;;21.80;3.85;;;20.20;37.80;;;;;;5033292;28;20080;-62
2021/03/09 03:41:32;;;;;;;16.63;3.00;;;20.20;38.10;;;;;;5039439;28;20072;-64
2021/03/09 03:43:59;;;;;;;19.13;3.08;;;20.20;38.10;;;;;;5035702;28;20092;-62
2021/03/09 03:46:26;;;;;;;17.25;3.08;;;20.10;37.60;;;;;;5034530;28;20510;-63
2021/03/09 03:48:53;;;;;;;28.77;4.13;;;20.10;37.70;;;;;;5038161;28;20450;-62
2021/03/09 03:51:27;;;;;;;15.90;3.80;;;20.00;37.70;;;;;;5037679;28;20074;-61
2021/03/09 03:54:47;;;;;;;15.52;3.20;;;20.10;37.70;;;;;;5036794;28;20145;-62
2021/03/09 03:57:21;;;;;;;23.70;3.17;;;20.20;37.50;;;;;;4952791;28;20075;-62
2021/03/09 03:59:53;;;;;;;17.15;2.95;;;20.30;37.90;;;;;;5023740;28;20089;-63
2021/03/09 04:02:20;;;;;;;18.08;2.85;;;20.20;39.10;;;;;;5034184;28;20101;-62
2021/03/09 04:04:49;;;;;;;17.00;2.78;;;20.10;39.20;;;;;;5037419;28;20081;-61
2021/03/09 04:07:22;;;;;;;19.30;2.72;;;19.90;39.60;;;;;;5036053;28;20196;-61
2021/03/09 04:09:54;;;;;;;20.20;3.03;;;19.70;40.00;;;;;;5035984;28;20094;-62
2021/03/09 04:12:25;;;;;;;17.60;2.60;;;19.60;40.10;;;;;;5036082;28;20084;-63
2021/03/09 04:14:51;;;;;;;15.07;2.45;;;19.60;40.10;;;;;;5033430;28;20208;-63
2021/03/09 04:17:20;;;;;;;14.07;2.58;;;19.50;40.20;;;;;;5024801;28;20081;-63
2021/03/09 04:19:48;;;;;;;21.65;2.90;;;19.50;39.90;;;;;;5039334;28;20073;-63
2021/03/09 04:22:17;;;;;;;16.65;2.80;;;19.40;39.70;;;;;;5041176;28;20528;-62
2021/03/09 04:24:46;;;;;;;20.13;2.92;;;19.50;39.70;;;;;;5034420;28;20081;-62
2021/03/09 04:27:23;;;;;;;12.93;2.42;;;19.40;39.30;;;;;;5036105;28;20554;-63
2021/03/09 04:29:56;;;;;;;17.50;2.30;;;19.40;38.90;;;;;;5034630;28;20101;-65
2021/03/09 04:32:24;;;;;;;13.82;2.22;;;19.40;38.50;;;;;;5036901;28;20452;-62
2021/03/09 04:34:51;;;;;;;16.42;2.88;;;19.30;37.90;;;;;;5039645;28;20069;-63
2021/03/09 04:37:18;;;;;;;19.77;2.97;;;19.30;37.90;;;;;;5040963;28;20074;-62
2021/03/09 04:39:45;;;;;;;16.08;2.78;;;19.30;37.40;;;;;;5036683;28;20100;-63
2021/03/09 04:42:12;;;;;;;15.38;2.35;;;19.20;37.40;;;;;;5037542;28;20070;-62
2021/03/09 04:44:39;;;;;;;13.93;2.45;;;19.20;37.30;;;;;;5041422;28;20108;-63
2021/03/09 04:47:07;;;;;;;19.00;2.53;;;19.20;37.10;;;;;;5038610;28;20541;-62
2021/03/09 04:49:36;;;;;;;12.20;2.58;;;19.20;37.00;;;;;;5053596;28;20112;-64
2021/03/09 04:52:03;;;;;;;15.30;2.75;;;19.10;36.90;;;;;;5036630;28;20102;-63
2021/03/09 04:54:33;;;;;;;9.52;1.98;;;19.20;36.80;;;;;;5039271;28;20085;-61
2021/03/09 04:57:00;;;;;;;16.05;1.80;;;19.10;36.80;;;;;;5038613;28;20069;-62
2021/03/09 04:59:26;;;;;;;;;;;19.10;36.80;;;;;;5039025;28;20087;-59
2021/03/09 05:01:52;;;;;;;24.45;2.97;;;18.90;36.80;;;;;;5037465;28;20446;-63
2021/03/09 05:04:18;;;;;;;;;;;18.90;37.20;;;;;;5037927;28;20152;-64
2021/03/09 05:06:47;;;;;;;12.75;2.30;;;18.80;37.00;;;;;;5040423;28;19966;-62
2021/03/09 05:09:13;;;;;;;;;;;18.90;36.70;;;;;;5036807;28;20115;-64
2021/03/09 05:11:40;;;;;;;13.13;2.00;;;18.90;36.80;;;;;;5034714;28;19957;-64
2021/03/09 05:14:06;;;;;;;10.40;2.10;;;18.90;36.80;;;;;;5035321;28;20077;-62
2021/03/09 05:16:32;;;;;;;;;;;18.90;36.80;;;;;;5035649;28;20098;-61
2021/03/09 05:18:59;;;;;;;13.27;1.80;;;19.00;37.00;;;;;;5038703;28;19958;-62
2021/03/09 05:21:25;;;;;;;;;;;18.90;36.90;;;;;;5037484;28;20074;-61
2021/03/09 05:23:52;;;;;;;9.55;2.35;;;18.90;37.00;;;;;;5040070;28;19996;-62
2021/03/09 05:26:18;;;;;;;;;;;18.90;37.20;;;;;;5042870;28;20159;-62
2021/03/09 05:28:48;;;;;;;43.92;4.38;;;18.90;37.00;;;;;;5040031;28;19957;-61
2021/03/09 05:31:15;;;;;;;10.48;2.20;;;18.80;37.00;;;;;;5038984;28;20080;-61
2021/03/09 05:33:41;;;;;;;14.55;1.90;;;18.80;36.40;;;;;;5038161;28;20160;-59
2021/03/09 05:36:08;;;;;;;13.65;2.70;;;18.80;35.60;;;;;;5038641;28;20082;-62
2021/03/09 05:38:34;;;;;;;7.28;1.75;;;18.80;35.30;;;;;;5036533;28;20073;-63
2021/03/09 05:41:01;;;;;;;;;;;18.80;35.00;;;;;;5043250;28;20101;-61
2021/03/09 05:43:29;;;;;;;7.85;2.08;;;18.80;34.50;;;;;;5041954;28;19980;-60
2021/03/09 05:45:56;;;;;;;13.25;2.05;;;18.70;34.40;;;;;;5040094;28;20075;-60
2021/03/09 05:48:23;;;;;;;11.82;1.60;;;18.70;34.30;;;;;;5042855;28;20100;-60
2021/03/09 05:50:50;;;;;;;12.30;1.50;;;18.70;34.40;;;;;;5041042;28;20094;-62
2021/03/09 05:53:16;;;;;;;6.55;1.50;;;18.70;34.40;;;;;;5041674;28;20113;-63
2021/03/09 05:55:42;;;;;;;;;;;18.70;34.30;;;;;;5045992;28;20092;-60
2021/03/09 05:58:09;;;;;;;8.18;1.75;;;18.70;34.20;;;;;;5047009;28;19984;-66
2021/03/09 06:00:36;;;;;;;8.85;1.73;;;18.60;34.20;;;;;;5050152;28;20557;-62
2021/03/09 06:03:04;;;;;;;6.35;1.50;;;18.60;33.90;;;;;;5048405;28;20077;-62
2021/03/09 06:05:31;;;;;;;9.10;2.08;;;18.50;33.90;;;;;;5048239;28;20065;-62
2021/03/09 06:07:59;;;;;;;8.98;1.52;;;18.60;33.70;;;;;;5045217;28;20125;-59
2021/03/09 06:10:26;;;;;;;11.77;1.58;;;18.50;33.30;;;;;;5043730;28;20101;-62
2021/03/09 06:12:52;;;;;;;7.68;1.70;;;18.50;33.40;;;;;;5042686;28;20459;-63
2021/03/09 06:15:19;;;;;;;7.70;1.65;;;18.50;33.30;;;;;;5042376;28;20073;-64
2021/03/09 06:17:55;;;;;;;5.72;1.65;;;18.50;33.30;;;;;;5048131;28;20070;-62
2021/03/09 06:20:27;;;;;;;5.07;1.77;;;18.60;33.20;;;;;;5048882;28;20449;-63
2021/03/09 06:22:59;;;;;;;10.30;1.58;;;18.60;33.30;;;;;;5052027;28;20607;-62
2021/03/09 06:25:37;;;;;;;9.80;2.20;;;18.60;33.20;;;;;;5048199;28;20510;-59
2021/03/09 06:28:07;;;;;;;4.22;1.70;;;18.60;33.40;;;;;;5045315;28;20112;-62
2021/03/09 06:30:39;;;;;;;8.32;1.60;;;18.50;33.60;;;;;;5043581;28;20101;-65
2021/03/09 06:33:06;;;;;;;5.55;1.45;;;18.50;33.90;;;;;;5042683;28;20076;-62
2021/03/09 06:35:46;;;;;;;8.48;1.40;;;18.50;34.10;;;;;;5044285;28;20135;-61
2021/03/09 06:38:33;;;;;;;7.57;1.58;;;18.50;34.30;;;;;;5042466;28;20161;-60
2021/03/09 06:41:15;;;;;;;9.02;2.05;;;18.40;34.70;;;;;;5044145;28;20102;-62
2021/03/09 06:44:01;;;;;;;5.10;1.65;;;18.30;35.30;;;;;;5041321;28;20080;-64
2021/03/09 06:46:29;;;;;;;10.35;1.70;;;18.30;35.60;;;;;;5049616;28;20162;-62
2021/03/09 06:49:03;;;;;;;17.13;2.38;;;18.30;35.90;;;;;;5044961;28;20102;-62
2021/03/09 06:51:35;;;;;;;4.85;1.83;;;18.30;36.30;;;;;;5042375;28;20078;-63
2021/03/09 06:54:07;;;;;;;8.70;1.85;;;18.20;36.50;;;;;;5051902;28;20113;-64
2021/03/09 06:56:38;;;;;;;9.77;2.28;;;18.20;36.70;;;;;;5047879;28;20144;-58
2021/03/09 06:59:37;;;;;;;6.10;2.30;;;18.20;36.90;;;;;;5045141;28;20082;-62
2021/03/09 07:02:19;;;;;;;11.02;2.15;;;18.20;37.10;;;;;;5018252;28;20551;-60
2021/03/09 07:04:48;;;;;;;6.95;2.00;;;18.10;37.30;;;;;;5043229;28;20442;-61
2021/03/09 07:07:21;;;;;;;12.32;2.15;;;18.10;37.60;;;;;;5042307;28;20438;-62
2021/03/09 07:09:56;;;;;;;7.45;1.70;;;18.00;37.80;;;;;;5037705;28;20563;-58
2021/03/09 07:12:23;;;;;;;8.75;1.67;;;18.00;38.00;;;;;;5041488;28;20166;-60
2021/03/09 07:14:51;;;;;;;10.75;1.30;;;17.90;37.70;;;;;;5037808;28;20073;-63
2021/03/09 07:17:21;;;;;;;13.77;1.77;;;18.00;37.40;;;;;;5041440;28;20072;-60
2021/03/09 07:19:48;;;;;;;6.45;1.30;;;18.00;37.10;;;;;;5039121;28;20534;-60
2021/03/09 07:22:17;;;;;;;8.93;2.22;;;18.10;37.10;;;;;;5042299;28;20070;-60
2021/03/09 07:25:02;;;;;;;7.85;1.77;;;18.10;37.00;;;;;;5042034;28;20089;-61
2021/03/09 07:28:00;;;;;;;6.88;1.52;;;18.10;37.50;;;;;;5042328;28;20078;-61
2021/03/09 07:30:36;;;;;;;6.95;1.73;;;18.10;37.90;;;;;;5044762;28;20160;-60
2021/03/09 07:33:03;;;;;;;5.90;1.55;;;18.00;38.40;;;;;;5041539;28;20080;-59
2021/03/09 07:35:30;;;;;;;9.48;1.65;;;18.00;39.20;;;;;;5043781;28;20497;-62
2021/03/09 07:37:57;;;;;;;7.72;1.48;;;17.90;39.20;;;;;;5040183;28;20065;-62
2021/03/09 07:40:27;;;;;;;9.85;1.60;;;17.90;38.50;;;;;;5037947;28;21531;-65
2021/03/09 07:42:56;;;;;;;12.43;1.80;;;17.90;38.50;;;;;;5040018;28;20110;-64
2021/03/09 07:45:29;;;;;;;10.88;2.00;;;17.80;38.80;;;;;;5039970;28;20088;-60
2021/03/09 07:48:05;;;;;;;8.63;1.77;;;17.80;39.20;;;;;;5039450;28;20561;-60
2021/03/09 07:50:37;;;;;;;11.15;1.75;;;17.80;39.40;;;;;;5037917;28;20097;-59
2021/03/09 07:53:17;;;;;;;7.90;1.60;;;17.70;39.10;;;;;;5044196;28;20105;-60
2021/03/09 07:55:46;;;;;;;12.07;2.00;;;17.70;38.90;;;;;;5044859;28;20076;-61
2021/03/09 07:58:24;;;;;;;6.45;1.40;;;17.80;38.90;;;;;;5040543;28;20062;-62
2021/03/09 08:00:58;;;;;;;10.18;2.10;;;17.80;38.50;;;;;;5041969;28;20074;-62
2021/03/09 08:03:40;;;;;;;6.20;1.60;;;17.80;38.20;;;;;;5041525;28;20088;-61
2021/03/09 08:06:16;;;;;;;8.18;1.85;;;17.90;38.10;;;;;;5041001;28;20070;-60
2021/03/09 08:08:46;;;;;;;7.65;1.83;;;17.90;38.20;;;;;;5040086;28;20085;-63
2021/03/09 08:11:25;;;;;;;8.95;1.80;;;17.90;38.30;;;;;;5040802;28;20081;-61
2021/03/09 08:14:14;;;;;;;15.32;2.33;;;17.80;38.50;;;;;;5038254;28;20092;-63
2021/03/09 08:16:42;;;;;;;9.40;2.08;;;17.80;39.10;;;;;;5039619;28;20129;-62
2021/03/09 08:19:32;;;;;;;14.48;2.00;;;17.80;39.20;;;;;;5039057;28;20465;-63
2021/03/09 08:22:01;;;;;;;15.75;2.03;;;17.80;39.50;;;;;;5041063;28;20077;-62
2021/03/09 08:24:42;;;;;;;12.27;2.08;;;17.70;40.00;;;;;;5038382;28;20074;-59
2021/03/09 08:27:36;;;;;;;12.50;1.98;;;17.70;40.30;;;;;;5039000;28;20074;-60
2021/03/09 08:30:08;;;;;;;10.70;2.22;;;17.70;40.20;;;;;;5038234;28;20185;-61
2021/03/09 08:32:35;;;;;;;8.02;1.65;;;17.70;40.20;;;;;;5035946;28;20070;-63
2021/03/09 08:35:14;;;;;;;9.07;1.80;;;17.70;40.80;;;;;;5045866;28;20085;-61
2021/03/09 08:37:50;;;;;;;14.43;2.45;;;17.60;40.30;;;;;;5057106;28;20070;-62
2021/03/09 08:40:25;;;;;;;6.70;1.55;;;17.70;40.50;;;;;;5038237;28;20077;-62
2021/03/09 08:43:04;;;;;;;12.65;2.10;;;17.60;40.70;;;;;;5050637;28;20090;-60
2021/03/09 08:45:40;;;;;;;12.55;2.10;;;17.60;40.80;;;;;;5037826;28;20069;-61
2021/03/09 08:48:11;;;;;;;10.63;1.98;;;17.60;40.90;;;;;;5038531;28;20523;-59
2021/03/09 08:50:41;;;;;;;20.38;2.42;;;17.70;40.90;;;;;;5041926;28;20094;-59
2021/03/09 08:53:31;;;;;;;15.23;2.35;;;17.70;40.80;;;;;;5038266;28;20109;-59
2021/03/09 08:56:04;;;;;;;12.02;2.08;;;17.70;40.80;;;;;;5039089;28;20116;-58
2021/03/09 08:58:32;;;;;;;13.60;2.60;;;17.70;40.80;;;;;;5036467;28;20109;-58
2021/03/09 09:01:00;;;;;;;15.63;2.60;;;17.70;41.00;;;;;;5037328;28;20144;-62
2021/03/09 09:03:36;;;;;;;14.27;2.20;;;17.70;41.10;;;;;;5037393;28;20514;-59
2021/03/09 09:06:07;;;;;;;14.73;1.92;;;17.70;41.40;;;;;;5034461;28;20074;-60
2021/03/09 09:08:34;;;;;;;11.52;1.65;;;17.60;41.70;;;;;;5038805;28;20108;-61
2021/03/09 09:11:02;;;;;;;8.35;1.98;;;17.60;42.00;;;;;;5040334;28;20138;-62
2021/03/09 09:13:29;;;;;;;8.32;1.77;;;17.60;42.30;;;;;;5039755;28;20085;-60
2021/03/09 09:15:56;;;;;;;15.15;2.25;;;17.60;42.20;;;;;;5043704;28;20066;-60
2021/03/09 09:18:23;;;;;;;10.70;2.10;;;17.50;42.40;;;;;;5041749;28;20078;-59
2021/03/09 09:20:51;;;;;;;13.00;2.25;;;17.40;42.80;;;;;;5042708;28;20090;-57
2021/03/09 09:23:21;;;;;;;20.05;2.47;;;17.40;43.10;;;;;;5047455;28;20070;-58
2021/03/09 09:25:58;;;;;;;10.98;2.00;;;17.50;43.10;;;;;;5045727;28;20148;-60
2021/03/09 09:28:32;;;;;;;9.15;2.05;;;17.50;43.20;;;;;;5040844;28;20069;-60
2021/03/09 09:31:11;;;;;;;9.90;1.90;;;17.40;43.20;;;;;;5027368;28;20105;-57
2021/03/09 09:33:37;;;;;;;6.30;2.17;;;17.30;43.30;;;;;;5043103;28;20077;-60
2021/03/09 09:36:04;;;;;;;12.15;1.70;;;17.30;43.40;;;;;;5044141;28;20089;-61
2021/03/09 09:38:31;;;;;;;12.93;1.85;;;17.30;43.50;;;;;;5042261;28;20164;-59
2021/03/09 09:41:00;;;;;;;11.75;2.08;;;17.30;43.70;;;;;;5041022;28;20066;-61
2021/03/09 09:43:29;;;;;;;8.35;1.90;;;17.30;43.80;;;;;;5040553;28;20078;-58
2021/03/09 09:46:16;;;;;;;8.73;1.90;;;17.30;43.90;;;;;;5042900;28;20081;-59
2021/03/09 09:48:43;;;;;;;9.18;2.05;;;17.20;44.00;;;;;;5044356;28;20426;-59
2021/03/09 09:51:20;;;;;;;6.50;1.77;;;17.20;44.10;;;;;;5044391;28;20070;-62
2021/03/09 09:53:47;;;;;;;;;;;17.20;44.00;;;;;;5041223;28;20105;-57
2021/03/09 09:56:23;;;;;;;6.63;1.77;;;17.20;44.00;;;;;;5042574;28;19961;-60
2021/03/09 09:58:50;;;;;;;8.93;1.88;;;17.20;43.70;;;;;;5045614;28;20327;-62
2021/03/09 10:01:18;;;;;;;10.05;2.53;;;17.30;43.70;;;;;;5041857;28;20070;-61
2021/03/09 10:04:02;;;;;;;9.73;1.90;;;17.20;43.60;;;;;;5044019;28;20076;-60
2021/03/09 10:06:41;;;;;;;10.68;1.80;;;17.30;43.60;;;;;;5041748;28;20078;-60
2021/03/09 10:09:24;;;;;;;7.25;1.90;;;17.30;44.10;;;;;;5040774;28;20435;-62
2021/03/09 10:11:52;;;;;;;7.28;1.90;;;17.20;44.20;;;;;;5043711;28;20057;-59
2021/03/09 10:14:20;;;;;;;6.60;1.60;;;17.20;44.10;;;;;;5044789;28;20081;-60
2021/03/09 10:16:47;;;;;;;9.43;2.05;;;17.10;44.20;;;;;;5041657;28;20203;-60
2021/03/09 10:19:17;;;;;;;13.38;2.03;;;17.10;44.30;;;;;;5041052;28;20101;-60
2021/03/09 10:21:45;;;;;;;8.18;1.70;;;17.00;44.40;;;;;;5045338;28;20139;-60
2021/03/09 10:24:28;;;;;;;8.25;2.35;;;17.10;44.30;;;;;;5059149;28;20549;-61
2021/03/09 10:26:55;;;;;;;9.77;2.30;;;17.10;44.20;;;;;;5042287;28;20093;-59
2021/03/09 10:29:23;;;;;;;9.23;1.60;;;17.10;44.00;;;;;;5042836;28;20093;-59
2021/03/09 10:31:59;;;;;;;11.38;1.52;;;17.10;43.80;;;;;;5041644;28;20070;-55
2021/03/09 10:34:37;;;;;;;8.93;1.83;;;17.10;43.70;;;;;;5040162;28;20127;-60
2021/03/09 10:37:05;;;;;;;7.07;1.67;;;17.00;43.50;;;;;;5042913;28;20082;-62
2021/03/09 10:39:34;;;;;;;10.43;2.33;;;17.10;43.50;;;;;;5041629;28;20160;-61
2021/03/09 10:42:25;;;;;;;8.43;1.92;;;17.10;43.40;;;;;;5043151;28;20074;-59
2021/03/09 10:44:53;;;;;;;9.82;1.70;;;17.00;43.50;;;;;;5044878;28;20605;-61
2021/03/09 10:47:20;;;;;;;11.50;1.98;;;17.10;43.40;;;;;;5039896;28;20108;-58
2021/03/09 10:49:46;;;;;;;8.63;1.88;;;17.10;43.50;;;;;;5056997;28;20105;-61
2021/03/09 10:52:12;;;;;;;;;;;17.00;43.50;;;;;;5044869;28;20597;-61
2021/03/09 10:54:40;;;;;;;6.88;1.85;;;17.00;43.40;;;;;;5041585;28;20356;-60
2021/03/09 10:57:08;;;;;;;11.35;2.13;;;17.00;43.40;;;;;;5044463;28;20189;-60
2021/03/09 10:59:35;;;;;;;6.30;1.65;;;17.00;43.40;;;;;;5044807;28;20515;-61
2021/03/09 11:02:02;;;;;;;4.93;1.35;;;17.10;43.20;;;;;;5038210;28;20487;-59
2021/03/09 11:04:28;;;;;;;6.53;1.60;;;17.00;42.30;;;;;;5041467;28;20086;-60
2021/03/09 11:06:54;;;;;;;;;;;17.00;41.40;;;;;;5043409;28;20066;-60
2021/03/09 11:09:21;;;;;;;5.78;1.45;;;17.00;41.00;;;;;;5041374;28;19977;-59
2021/03/09 11:11:47;;;;;;;;;;;17.10;40.60;;;;;;5038147;28;20547;-61
2021/03/09 11:14:14;;;;;;;7.07;1.42;;;17.10;40.00;;;;;;5043006;28;20336;-61
2021/03/09 11:16:40;;;;;;;;;;;17.20;39.20;;;;;;5042589;28;20068;-59
2021/03/09 11:19:06;;;;;;;5.63;1.52;;;17.20;38.50;;;;;;5042816;28;20049;-59
2021/03/09 11:21:33;;;;;;;;;;;17.30;38.40;;;;;;5041877;28;20078;-61
2021/03/09 11:23:59;;;;;;;11.65;1.77;;;17.30;38.40;;;;;;5040753;28;19961;-61
2021/03/09 11:26:28;;;;;;;5.80;1.90;;;17.20;38.40;;;;;;5032920;28;20128;-60
2021/03/09 11:28:55;;;;;;;4.55;1.50;;;17.20;38.30;;;;;;5047934;28;20074;-60
2021/03/09 11:31:22;;;;;;;5.60;2.05;;;17.30;38.60;;;;;;5048818;28;20477;-59
2021/03/09 11:33:49;;;;;;;6.75;1.63;;;17.20;38.50;;;;;;5044110;28;20077;-61
2021/03/09 11:36:17;;;;;;;4.53;1.98;;;17.20;38.80;;;;;;5041955;28;20128;-62
2021/03/09 11:38:45;;;;;;;5.90;1.67;;;17.20;38.70;;;;;;5041813;28;20070;-61
2021/03/09 11:41:13;;;;;;;6.07;1.45;;;17.20;38.90;;;;;;5046494;28;20074;-61
2021/03/09 11:43:40;;;;;;;6.35;1.80;;;17.10;38.70;;;;;;5048196;28;20074;-61
2021/03/09 11:46:07;;;;;;;5.00;1.80;;;17.10;38.70;;;;;;5046545;28;20078;-56
2021/03/09 11:48:34;;;;;;;11.25;2.20;;;17.10;38.80;;;;;;5043141;28;20108;-61
2021/03/09 11:51:01;;;;;;;8.38;3.13;;;17.10;38.90;;;;;;5044707;28;20613;-62
2021/03/09 11:53:28;;;;;;;7.75;2.50;;;17.10;38.70;;;;;;5045971;28;20113;-61
2021/03/09 11:55:54;;;;;;;7.40;2.22;;;17.10;38.50;;;;;;5044889;28;20084;-60
2021/03/09 11:58:20;;;;;;;;;;;17.20;38.70;;;;;;5045254;28;20073;-61
2021/03/09 12:00:47;;;;;;;5.43;1.80;;;17.10;38.50;;;;;;5046005;28;20011;-60
2021/03/09 12:03:14;;;;;;;5.82;2.00;;;17.20;38.30;;;;;;5043567;28;20077;-61
2021/03/09 12:05:40;;;;;;;;;;;17.20;38.10;;;;;;5046200;28;20060;-60
2021/03/09 12:08:07;;;;;;;6.53;2.00;;;17.20;37.90;;;;;;5042759;28;19979;-60
2021/03/09 12:10:34;;;;;;;8.07;2.08;;;17.10;37.80;;;;;;5040117;28;20094;-57
2021/03/09 12:13:01;;;;;;;5.07;1.75;;;17.20;36.80;;;;;;5044473;28;20069;-61
2021/03/09 12:15:27;;;;;;;;;;;17.20;36.40;;;;;;5044417;28;20124;-59
2021/03/09 12:17:53;;;;;;;9.82;1.85;;;17.20;36.10;;;;;;5042037;28;19961;-60
2021/03/09 12:20:20;;;;;;;;;;;17.20;35.80;;;;;;5043497;28;20867;-61
2021/03/09 12:22:47;;;;;;;6.63;1.50;;;17.20;35.80;;;;;;5048041;28;19958;-60
2021/03/09 12:25:14;;;;;;;7.82;1.63;;;17.20;35.70;;;;;;5044708;28;20078;-59
2021/03/09 12:27:41;;;;;;;6.03;2.10;;;17.20;36.10;;;;;;5043296;28;20072;-61
2021/03/09 12:30:09;;;;;;;15.00;1.90;;;17.20;35.80;;;;;;5046984;28;20494;-60
2021/03/09 12:32:36;;;;;;;12.18;1.70;;;17.10;35.70;;;;;;5041162;28;20132;-60
2021/03/09 12:35:04;;;;;;;7.55;1.80;;;17.10;35.70;;;;;;5042944;28;20080;-61
2021/03/09 12:37:31;;;;;;;3.45;1.27;;;17.10;35.80;;;;;;5046096;28;20092;-60
2021/03/09 12:39:57;;;;;;;;;;;17.10;35.60;;;;;;5044045;28;20074;-60
2021/03/09 12:42:23;;;;;;;5.55;1.40;;;17.20;35.20;;;;;;5045928;28;20008;-61
2021/03/09 12:44:50;;;;;;;;;;;17.10;35.00;;;;;;5043925;28;20100;-62
2021/03/09 12:47:17;;;;;;;9.13;1.95;;;17.10;35.20;;;;;;5050143;28;19988;-60
2021/03/09 12:49:44;;;;;;;6.90;1.70;;;17.10;35.20;;;;;;5045943;28;20090;-57
2021/03/09 12:52:11;;;;;;;7.82;1.67;;;17.00;34.90;;;;;;5046557;28;20197;-61
2021/03/09 12:54:38;;;;;;;5.93;1.15;;;17.10;34.80;;;;;;5045212;28;20085;-62
2021/03/09 12:57:05;;;;;;;6.93;1.63;;;17.10;34.40;;;;;;5046135;28;20203;-61
2021/03/09 12:59:31;;;;;;;9.65;1.92;;;17.10;34.20;;;;;;5045064;28;20532;-62